createdAt,value
2018-07-05T00:00:44.055Z,18.30
2018-07-05T00:03:30.323Z,18.20
2018-07-05T00:06:16.570Z,18.30
2018-07-05T00:09:04.646Z,18.20
2018-07-05T00:11:51.192Z,18.20
2018-07-05T00:14:37.576Z,18.10
2018-07-05T00:20:29.002Z,17.90
2018-07-05T00:23:15.395Z,17.90
2018-07-05T00:26:01.946Z,17.80
2018-07-05T00:28:48.443Z,17.80
2018-07-05T00:31:34.955Z,17.80
2018-07-05T00:34:21.506Z,17.70
2018-07-05T00:37:07.969Z,17.70
2018-07-05T00:39:54.512Z,17.70
2018-07-05T00:42:40.987Z,17.80
2018-07-05T00:45:27.903Z,17.90
2018-07-05T00:48:14.395Z,17.90
2018-07-05T00:51:01.072Z,17.90
2018-07-05T00:53:47.446Z,17.80
2018-07-05T00:56:33.996Z,17.70
2018-07-05T00:59:20.256Z,17.60
2018-07-05T01:02:06.884Z,17.50
2018-07-05T01:04:53.331Z,17.40
2018-07-05T01:07:39.860Z,17.50
2018-07-05T01:10:26.386Z,17.50
2018-07-05T01:13:12.652Z,17.50
2018-07-05T01:15:59.364Z,17.50
2018-07-05T01:18:45.882Z,17.40
2018-07-05T01:21:32.480Z,17.40
2018-07-05T01:24:18.836Z,17.40
2018-07-05T01:27:05.301Z,17.40
2018-07-05T01:29:51.900Z,17.40
2018-07-05T01:32:38.472Z,17.30
2018-07-05T01:35:24.918Z,17.30
2018-07-05T01:38:11.256Z,17.20
2018-07-05T01:40:57.809Z,17.30
2018-07-05T01:43:44.244Z,17.20
2018-07-05T01:46:30.672Z,17.30
2018-07-05T01:49:17.181Z,17.30
2018-07-05T01:52:03.864Z,17.30
2018-07-05T01:54:50.576Z,17.30
2018-07-05T01:57:37.033Z,17.10
2018-07-05T02:00:23.469Z,17.10
2018-07-05T02:03:09.819Z,17.10
2018-07-05T02:05:56.237Z,17.00
2018-07-05T02:08:42.681Z,17.00
2018-07-05T02:11:29.253Z,17.00
2018-07-05T02:14:15.596Z,16.90
2018-07-05T02:17:02.139Z,16.90
2018-07-05T02:19:48.608Z,16.90
2018-07-05T02:22:34.992Z,16.90
2018-07-05T02:25:21.519Z,17.00
2018-07-05T02:28:08.066Z,17.00
2018-07-05T02:30:54.644Z,17.00
2018-07-05T02:33:41.101Z,17.00
2018-07-05T02:36:27.734Z,16.90
2018-07-05T02:39:19.381Z,16.90
2018-07-05T02:42:05.713Z,16.90
2018-07-05T02:44:52.787Z,16.90
2018-07-05T02:47:39.380Z,16.90
2018-07-05T02:50:25.905Z,16.90
2018-07-05T02:53:12.491Z,16.90
2018-07-05T02:55:58.897Z,16.90
2018-07-05T02:58:45.220Z,16.90
2018-07-05T03:01:31.575Z,16.90
2018-07-05T03:04:17.936Z,16.90
2018-07-05T03:07:04.394Z,17.00
2018-07-05T03:09:50.864Z,17.00
2018-07-05T03:12:37.048Z,17.00
2018-07-05T03:15:23.924Z,17.00
2018-07-05T03:18:10.374Z,17.00
2018-07-05T03:20:56.947Z,17.10
2018-07-05T03:23:43.330Z,17.10
2018-07-05T03:26:29.883Z,17.00
2018-07-05T03:29:16.404Z,16.90
2018-07-05T03:32:02.949Z,17.00
2018-07-05T03:34:49.546Z,17.00
2018-07-05T03:37:35.840Z,17.10
2018-07-05T03:40:22.243Z,17.10
2018-07-05T03:43:08.970Z,17.20
2018-07-05T03:45:55.412Z,17.30
2018-07-05T03:48:41.877Z,17.20
2018-07-05T03:51:28.333Z,17.20
2018-07-05T03:54:14.739Z,17.10
2018-07-05T03:57:01.164Z,17.10
2018-07-05T03:59:47.648Z,17.10
2018-07-05T04:02:34.137Z,17.20
2018-07-05T04:05:20.432Z,17.20
2018-07-05T04:08:06.778Z,17.20
2018-07-05T04:10:53.385Z,17.20
2018-07-05T04:13:39.784Z,17.20
2018-07-05T04:16:26.306Z,17.30
2018-07-05T04:19:12.834Z,17.30
2018-07-05T04:21:59.324Z,17.40
2018-07-05T04:24:45.639Z,17.40
2018-07-05T04:27:32.196Z,17.40
2018-07-05T04:30:18.701Z,17.40
2018-07-05T04:33:05.258Z,17.30
2018-07-05T04:35:51.772Z,17.30
2018-07-05T04:38:38.286Z,17.40
2018-07-05T04:41:24.881Z,17.50
2018-07-05T04:44:11.299Z,17.50
2018-07-05T04:46:57.740Z,17.50
2018-07-05T04:49:43.944Z,17.50
2018-07-05T04:52:30.264Z,17.40
2018-07-05T04:55:18.470Z,17.50
2018-07-05T04:58:05.009Z,17.50
2018-07-05T05:00:51.445Z,17.60
2018-07-05T05:03:37.869Z,17.60
2018-07-05T05:06:24.500Z,17.70
2018-07-05T05:09:10.928Z,17.70
2018-07-05T05:11:57.403Z,17.80
2018-07-05T05:14:43.780Z,17.80
2018-07-05T05:17:30.021Z,17.80
2018-07-05T05:20:16.444Z,17.90
2018-07-05T05:23:02.940Z,17.90
2018-07-05T05:25:49.358Z,17.80
2018-07-05T05:28:35.780Z,17.80
2018-07-05T05:31:23.016Z,17.70
2018-07-05T05:34:09.450Z,17.70
2018-07-05T05:36:55.812Z,17.70
2018-07-05T05:39:42.401Z,17.70
2018-07-05T05:42:28.980Z,17.60
2018-07-05T05:45:15.504Z,17.60
2018-07-05T06:00:04.645Z,17.60
2018-07-05T06:02:51.243Z,17.50
2018-07-05T06:05:37.760Z,17.50
2018-07-05T06:08:24.759Z,17.50
2018-07-05T06:11:11.302Z,17.50
2018-07-05T06:13:57.760Z,17.60
2018-07-05T06:16:44.113Z,17.60
2018-07-05T06:19:30.504Z,17.60
2018-07-05T06:22:16.929Z,17.40
2018-07-05T06:25:03.377Z,17.30
2018-07-05T06:27:49.709Z,17.40
2018-07-05T06:30:36.862Z,17.50
2018-07-05T06:33:23.305Z,17.40
2018-07-05T06:36:09.792Z,17.40
2018-07-05T06:38:56.233Z,17.40
2018-07-05T06:41:42.721Z,17.40
2018-07-05T06:44:29.309Z,17.40
2018-07-05T06:47:15.692Z,17.30
2018-07-05T06:50:02.210Z,17.40
2018-07-05T06:52:48.736Z,17.40
2018-07-05T06:55:35.327Z,17.40
2018-07-05T06:58:21.810Z,17.50
2018-07-05T07:01:08.316Z,17.50
2018-07-05T07:03:54.750Z,17.50
2018-07-05T07:06:41.060Z,17.50
2018-07-05T07:09:27.540Z,17.50
2018-07-05T07:12:13.967Z,17.60
2018-07-05T07:15:00.301Z,17.70
2018-07-05T07:17:48.260Z,17.80
2018-07-05T07:20:35.256Z,17.90
2018-07-05T07:23:21.659Z,17.90
2018-07-05T07:26:08.165Z,17.90
2018-07-05T07:28:54.682Z,18.00
2018-07-05T07:31:41.181Z,18.10
2018-07-05T07:34:27.719Z,18.00
2018-07-05T07:37:14.217Z,18.10
2018-07-05T07:40:00.629Z,18.20
2018-07-05T07:42:34.885Z,18.20
2018-07-05T07:45:02.813Z,18.20
2018-07-05T07:47:30.833Z,18.30
2018-07-05T07:49:58.803Z,18.30
2018-07-05T07:52:26.961Z,18.40
2018-07-05T07:54:54.869Z,18.40
2018-07-05T07:57:22.777Z,18.50
2018-07-05T07:59:50.672Z,18.60
2018-07-05T08:02:18.570Z,18.70
2018-07-05T08:04:46.465Z,18.90
2018-07-05T08:07:14.612Z,19.00
2018-07-05T08:09:42.492Z,19.20
2018-07-05T08:12:10.384Z,19.30
2018-07-05T08:14:38.281Z,19.40
2018-07-05T08:17:06.188Z,19.50
2018-07-05T08:19:34.066Z,19.60
2018-07-05T08:22:01.978Z,19.60
2018-07-05T08:24:29.855Z,19.70
2018-07-05T08:26:57.789Z,19.70
2018-07-05T08:29:25.676Z,19.70
2018-07-05T08:31:53.628Z,19.70
2018-07-05T08:34:21.532Z,19.80
2018-07-05T08:36:49.452Z,19.90
2018-07-05T08:39:17.428Z,19.90
2018-07-05T08:41:46.246Z,19.90
2018-07-05T08:44:14.176Z,19.90
2018-07-05T08:46:42.580Z,20.00
2018-07-05T08:49:10.464Z,20.00
2018-07-05T08:51:38.333Z,20.00
2018-07-05T08:54:06.232Z,20.00
2018-07-05T08:56:34.108Z,19.90
2018-07-05T08:59:02.079Z,19.90
2018-07-05T09:01:30.023Z,19.90
2018-07-05T09:03:58.044Z,19.80
2018-07-05T09:06:26.130Z,19.80
2018-07-05T09:08:54.140Z,19.80
2018-07-05T09:11:22.093Z,19.80
2018-07-05T09:13:50.313Z,19.70
2018-07-05T09:16:18.276Z,19.70
2018-07-05T09:18:46.356Z,19.70
2018-07-05T09:21:14.313Z,19.70
2018-07-05T09:23:42.349Z,19.70
2018-07-05T09:26:10.334Z,19.70
2018-07-05T09:28:38.392Z,19.70
2018-07-05T09:31:06.384Z,19.70
2018-07-05T09:33:34.320Z,19.80
2018-07-05T09:36:02.272Z,19.80
2018-07-05T09:38:30.291Z,19.80
2018-07-05T09:40:58.219Z,19.80
2018-07-05T09:43:26.132Z,19.90
2018-07-05T09:45:54.025Z,19.80
2018-07-05T09:48:21.947Z,19.90
2018-07-05T09:50:49.833Z,20.00
2018-07-05T09:53:17.790Z,20.00
2018-07-05T09:55:45.676Z,20.10
2018-07-05T09:58:13.558Z,20.10
2018-07-05T10:00:46.804Z,20.10
2018-07-05T10:03:14.699Z,20.10
2018-07-05T10:05:42.604Z,20.10
2018-07-05T10:08:10.596Z,20.20
2018-07-05T10:10:38.528Z,20.20
2018-07-05T10:13:06.474Z,20.20
2018-07-05T10:15:34.348Z,20.30
2018-07-05T10:18:02.377Z,20.40
2018-07-05T10:20:30.298Z,20.40
2018-07-05T10:22:58.212Z,20.50
2018-07-05T10:25:26.144Z,20.60
2018-07-05T10:27:54.047Z,20.80
2018-07-05T10:30:34.199Z,20.90
2018-07-05T10:33:20.832Z,21.00
2018-07-05T10:35:55.211Z,21.00
2018-07-05T10:38:24.222Z,21.10
2018-07-05T10:47:06.254Z,21.30
2018-07-05T10:49:52.874Z,21.40
2018-07-05T10:52:39.677Z,21.40
2018-07-05T10:55:26.175Z,21.50
2018-07-05T10:58:12.573Z,21.50
2018-07-05T11:00:59.054Z,21.60
2018-07-05T11:03:45.613Z,21.70
2018-07-05T11:06:32.216Z,21.80
2018-07-05T11:09:18.707Z,21.80
2018-07-05T11:12:05.149Z,22.00
2018-07-05T11:14:51.684Z,22.00
2018-07-05T11:17:38.092Z,22.10
2018-07-05T11:20:24.699Z,22.20
2018-07-05T11:23:11.089Z,22.30
2018-07-05T14:03:42.131Z,22.50
2018-07-05T14:06:28.512Z,25.70
2018-07-05T14:09:15.002Z,25.70
2018-07-05T14:12:01.357Z,25.80
2018-07-05T14:14:47.778Z,26.00
2018-07-05T14:17:34.255Z,26.10
2018-07-05T14:20:20.663Z,26.10
2018-07-05T14:23:07.244Z,26.00
2018-07-05T14:25:53.739Z,25.70
2018-07-05T14:28:40.061Z,25.30
2018-07-05T14:31:26.530Z,24.90
2018-07-05T14:34:12.881Z,24.60
2018-07-05T14:36:59.287Z,24.30
2018-07-05T14:39:46.272Z,24.10
2018-07-05T14:42:32.852Z,23.90
2018-07-05T14:45:19.352Z,23.80
2018-07-05T14:48:05.744Z,23.70
2018-07-05T14:50:51.937Z,23.60
2018-07-05T14:53:38.289Z,23.60
2018-07-05T14:56:24.743Z,23.50
2018-07-05T14:59:11.105Z,23.60
2018-07-05T15:01:57.438Z,23.60
2018-07-05T15:04:43.784Z,23.50
2018-07-05T15:07:41.004Z,23.50
2018-07-05T15:10:27.305Z,23.50
2018-07-05T15:13:13.655Z,23.50
2018-07-05T15:15:59.884Z,23.40
2018-07-05T15:18:46.229Z,23.40
2018-07-05T15:21:32.688Z,23.40
2018-07-05T15:24:18.989Z,23.40
2018-07-05T15:27:05.185Z,23.30
2018-07-05T15:29:51.494Z,23.30
2018-07-05T15:32:37.810Z,23.40
2018-07-05T15:35:24.157Z,23.40
2018-07-05T15:38:11.162Z,23.50
2018-07-05T15:40:57.671Z,23.50
2018-07-05T15:43:44.214Z,23.70
2018-07-05T15:46:30.816Z,23.90
2018-07-05T15:49:17.204Z,24.00
2018-07-05T15:52:03.875Z,24.20
2018-07-05T15:54:50.416Z,24.30
2018-07-05T15:57:36.920Z,24.30
2018-07-05T16:00:23.300Z,24.30
2018-07-05T16:03:09.937Z,24.20
2018-07-05T16:05:56.425Z,24.10
2018-07-05T16:08:42.997Z,23.90
2018-07-05T16:11:29.467Z,23.70
2018-07-05T16:14:15.840Z,23.60
2018-07-05T16:17:02.439Z,23.40
2018-07-05T16:19:48.837Z,23.20
2018-07-05T16:22:35.140Z,23.10
2018-07-05T16:25:21.668Z,23.00
2018-07-05T16:28:08.665Z,23.00
2018-07-05T16:30:55.196Z,23.00
2018-07-05T16:33:41.729Z,23.00
2018-07-05T16:36:28.216Z,23.00
2018-07-05T16:39:14.638Z,22.90
2018-07-05T16:42:01.117Z,22.90
2018-07-05T16:44:47.476Z,22.80
2018-07-05T16:47:33.816Z,22.80
2018-07-05T16:50:20.144Z,22.80
2018-07-05T16:53:06.460Z,22.90
2018-07-05T16:55:52.951Z,22.90
2018-07-05T16:58:39.545Z,22.90
2018-07-05T17:01:25.941Z,22.80
2018-07-05T17:04:12.380Z,22.80
2018-07-05T17:06:58.896Z,22.80
2018-07-05T17:09:45.201Z,22.90
2018-07-05T17:12:31.500Z,22.90
2018-07-05T17:15:17.937Z,22.90
2018-07-05T17:18:04.379Z,22.90
2018-07-05T17:20:50.920Z,22.90
2018-07-05T17:23:37.411Z,22.90
2018-07-05T17:26:24.024Z,22.80
2018-07-05T17:29:10.500Z,22.80
2018-07-05T17:31:57.084Z,22.80
2018-07-05T17:34:43.561Z,22.70
2018-07-05T17:37:29.876Z,22.80
2018-07-05T17:40:16.206Z,22.80
2018-07-05T17:43:02.599Z,22.70
2018-07-05T17:45:49.548Z,22.70
2018-07-05T17:48:36.072Z,22.60
2018-07-05T17:51:22.631Z,22.60
2018-07-05T17:54:08.933Z,22.50
2018-07-05T17:56:55.278Z,22.50
2018-07-05T17:59:41.469Z,22.40
2018-07-05T18:02:27.987Z,22.40
2018-07-05T18:05:14.661Z,22.20
2018-07-05T18:08:01.278Z,22.20
2018-07-05T18:10:47.580Z,22.10
2018-07-05T18:13:34.095Z,22.00
2018-07-05T18:16:20.606Z,22.00
2018-07-05T18:19:06.961Z,21.80
2018-07-05T18:21:53.372Z,21.80
2018-07-05T18:24:39.886Z,21.70
2018-07-05T18:27:26.340Z,21.60
2018-07-05T18:30:12.805Z,21.60
2018-07-05T18:32:59.385Z,21.50
2018-07-05T18:35:45.914Z,21.50
2018-07-05T18:38:32.635Z,21.40
2018-07-05T18:41:19.048Z,21.40
2018-07-05T18:44:05.499Z,21.30
2018-07-05T18:46:51.788Z,21.20
2018-07-05T18:49:38.396Z,21.20
2018-07-05T18:52:24.810Z,21.20
2018-07-05T18:55:11.441Z,21.10
2018-07-05T18:57:57.796Z,21.10
2018-07-05T19:00:44.345Z,21.10
2018-07-05T19:03:30.872Z,21.10
2018-07-05T19:06:17.247Z,21.10
2018-07-05T19:09:03.939Z,21.10
2018-07-05T19:11:50.163Z,21.10
2018-07-05T19:14:36.564Z,21.10
2018-07-05T19:17:26.324Z,21.00
2018-07-05T19:20:13.562Z,21.10
2018-07-05T19:22:59.858Z,21.10
2018-07-05T19:25:47.562Z,21.00
2018-07-05T19:28:33.939Z,21.00
2018-07-05T19:31:20.634Z,21.00
2018-07-05T19:34:07.054Z,21.00
2018-07-05T19:36:53.598Z,20.90
2018-07-05T19:39:40.193Z,20.90
2018-07-05T19:42:26.638Z,20.80
2018-07-05T19:45:13.001Z,20.80
2018-07-05T19:47:59.410Z,20.70
2018-07-05T19:50:45.749Z,20.70
2018-07-05T19:53:32.103Z,20.70
2018-07-05T19:56:18.579Z,20.70
2018-07-05T19:59:04.900Z,20.60
2018-07-05T20:01:51.530Z,20.60
2018-07-05T20:04:38.109Z,20.60
2018-07-05T20:07:24.605Z,20.50
2018-07-05T20:10:11.224Z,20.50
2018-07-05T20:12:57.653Z,20.50
2018-07-05T20:15:44.227Z,20.50
2018-07-05T20:18:30.862Z,20.50
2018-07-05T20:21:17.329Z,20.50
2018-07-05T20:24:03.671Z,20.40
2018-07-05T20:26:50.249Z,20.40
2018-07-05T20:29:36.729Z,20.40
2018-07-05T20:32:23.164Z,20.40
2018-07-05T20:35:09.479Z,20.40
2018-07-05T20:37:55.946Z,20.40
2018-07-05T20:40:42.707Z,20.40
2018-07-05T20:43:29.266Z,20.30
2018-07-05T20:46:15.668Z,20.30
2018-07-05T20:49:02.170Z,20.30
2018-07-05T20:51:48.647Z,20.30
2018-07-05T20:54:34.956Z,20.30
2018-07-05T20:57:21.294Z,20.30
2018-07-05T21:00:07.714Z,20.30
2018-07-05T21:02:54.160Z,20.20
2018-07-05T21:05:40.463Z,20.20
2018-07-05T21:08:26.795Z,20.20
2018-07-05T21:11:13.184Z,20.20
2018-07-05T21:13:59.690Z,20.20
2018-07-05T21:16:46.168Z,20.20
2018-07-05T21:19:32.493Z,20.10
2018-07-05T21:22:18.855Z,20.10
2018-07-05T21:25:05.336Z,20.10
2018-07-05T21:27:51.666Z,20.10
2018-07-05T21:30:38.150Z,20.10
2018-07-05T21:33:24.463Z,20.00
2018-07-05T21:36:11.757Z,20.00
2018-07-05T21:38:58.288Z,20.00
2018-07-05T21:41:44.853Z,20.00
2018-07-05T21:44:31.265Z,20.00
2018-07-05T21:47:17.660Z,20.00
2018-07-05T21:50:04.149Z,20.00
2018-07-05T21:52:50.602Z,20.00
2018-07-05T21:55:37.074Z,20.00
2018-07-05T21:58:23.493Z,20.00
2018-07-05T22:01:10.038Z,19.90
2018-07-05T22:03:56.598Z,19.90
2018-07-05T22:06:43.036Z,19.90
2018-07-05T22:09:29.356Z,19.90
2018-07-05T22:12:15.741Z,19.90
2018-07-05T22:15:02.215Z,19.90
2018-07-05T22:17:53.941Z,19.90
2018-07-05T22:20:45.676Z,19.80
2018-07-05T22:23:37.304Z,19.80
2018-07-05T22:26:28.976Z,19.80
2018-07-05T22:29:20.715Z,19.80
2018-07-05T22:32:07.106Z,19.80
2018-07-05T22:34:53.538Z,19.70
2018-07-05T22:37:40.087Z,19.70
2018-07-05T22:40:26.608Z,19.70
2018-07-05T22:43:12.912Z,19.70
2018-07-05T22:45:59.372Z,19.70
